Terminal Aerodrome Forecast
Issued by NWS Blacksburg, VA

Home | Current Version | Previous Version | Text Only | Print | Product List | Glossary On
Versions: 1 2 3 4 5 6 7 8 9 10 11 12 13 14 15
000
FTUS41 KRNK 260531
TAFBLF
TAF
KBLF 260531Z 2606/2706 28010KT P6SM BKN013 WS014/30040KT
      TEMPO 2607/2609 OVC009
     FM261000 29010KT P6SM OVC010
     FM261230 30010KT P6SM SCT010
     FM261400 30011G22KT P6SM SKC
     FM262200 29008KT P6SM SKC=

USA.gov is the U.S. government's official web portal to all federal, state and local government web resources and services.